Nearby METAR Reports

 

KCFV - Coffeyville, Kansas, USA
Distance from station: ENE 93mi, 150km
Updated: Wed, 11-20-2019 10:52pm CST
Overcast
Overcast
 Wind from S
Wind: S 17 mph , 28 km/h, Gust: 28 mph , 44 km/h
Temperature: 61°F , 16°C
Dew Point: 57°F , 14°C
Humidity: 88%
Barometer: 1010.5 hPa
Clouds: Overcast
Visibility: 10 miles , 16 km
Cloud details: Overcast 2500 ft
2019/11/21 04:52 KCFV 210452Z AUTO 17015G24KT 10SM OVC025 16/14 A2984 RMK AO2 RAE0355 SLP100 P0000 T01560139
KIDP - Independence, Kansas, USA
Distance from station: NE 86mi, 138km
Updated: Wed, 11-20-2019 11:35pm CST
Overcast
Overcast
 Wind from S
Wind: S 16 mph , 26 km/h, Gust: 25 mph , 41 km/h
Temperature: 61°F , 16°C
Dew Point: 57°F , 14°C
Humidity: 88%
Barometer: 1010.8 hPa
Clouds: Overcast
Visibility: 10 miles , 16 km
Cloud details: Overcast 1900 ft
2019/11/21 05:35 KIDP 210535Z AUTO 18014G22KT 10SM OVC019 16/14 A2985 RMK AO2
KIAB - Mcconnell Afb, Kansas, USA
Distance from station: N 84mi, 135km
Updated: Wed, 11-20-2019 10:56pm CST
Overcast
Overcast
 Wind from SSE
Wind: SSE 25 mph , 41 km/h, Gust: 31 mph , 50 km/h
Temperature: 63°F , 17°C
Dew Point: 61°F , 16°C
Humidity: 94%
Barometer: 1008.5 hPa
Clouds: Overcast
Visibility: 10 miles , 16 km
Cloud details: Overcast 900 ft
2019/11/21 04:56 KIAB 210456Z AUTO 16022G27KT 10SM OVC009 17/16 A2978 RMK AO2 PK WND 16031/29 SLP081 T01730163
 
KICT - Wichita, Kansas, USA
Distance from station: NNW 88mi, 142km
Updated: Wed, 11-20-2019 11:32pm CST
Overcast
Overcast
 Wind from S
Wind: S 16 mph , 26 km/h, Gust: 30 mph , 48 km/h
Temperature: 63°F , 17°C
Dew Point: 61°F , 16°C
Humidity: 94%
Barometer: 1008.1 hPa
Clouds: Overcast
Visibility: 8 miles , 13 km
Cloud details: Overcast 900 ft
2019/11/21 05:32 KICT 210532Z 19014G26KT 8SM OVC009 17/16 A2977 RMK AO2 PK WND 20028/0455 CIG 008V013 T01720156
KAAO - Wichita/Jabara, Kansas, USA
Distance from station: N 93mi, 149km
Updated: Wed, 11-20-2019 10:54pm CST
Overcast
Overcast
 Wind from SSW
Wind: SSW 24 mph , 39 km/h, Gust: 37 mph , 59 km/h
Temperature: 63°F , 17°C
Dew Point: 61°F , 16°C
Humidity: 94%
Barometer: 1008.5 hPa
Clouds: Overcast
Visibility: 10 miles , 16 km
Cloud details: Mostly cloudy 1100 ft
Overcast 1400 ft
2019/11/21 04:54 KAAO 210454Z AUTO 20021G32KT 10SM BKN011 OVC014 17/16 A2978 RMK AO2 PK WND 19034/0358 SLP079 T01720161 $
KWLD - Winfield/Arkansa, Kansas, USA
Distance from station: N 52mi, 84km
Updated: Wed, 11-20-2019 10:54pm CST
Mostly cloudy
Mostly cloudy
 Wind from S
Wind: S 23 mph , 37 km/h, Gust: 32 mph , 52 km/h
Temperature: 63°F , 17°C
Dew Point: 61°F , 16°C
Humidity: 94%
Barometer: 1009.5 hPa
Clouds: Mostly cloudy
Visibility: 10 miles , 16 km
Cloud details: Mostly cloudy 1200 ft
Mostly cloudy 8500 ft
2019/11/21 04:54 KWLD 210454Z AUTO 17020G28KT 10SM BKN012 BKN085 17/16 A2981 RMK AO2 PK WND 18034/0441 SLP089 T01720156
 
KAVK - Alva, Oklahoma, USA
Distance from station: WNW 94mi, 152km
Updated: Wed, 11-20-2019 11:35pm CST
Clear
Clear
 Wind from SSW
Wind: SSW 12 mph , 19 km/h
Temperature: 61°F , 16°C
Dew Point: 61°F , 16°C
Humidity: 100%
Barometer: 1008.8 hPa
Clouds: Clear
Visibility: 7 miles , 11 km
2019/11/21 05:35 KAVK 210535Z AUTO 20010KT 7SM CLR 16/16 A2979 RMK AO2
KBVO - Bartlesville, Oklahoma, USA
Distance from station: ENE 61mi, 98km
Updated: Wed, 11-20-2019 11:09pm CST
Overcast
Overcast
 Wind from S
Wind: S 12 mph , 19 km/h, Gust: 22 mph , 35 km/h
Temperature: 63°F , 17°C
Dew Point: 59°F , 15°C
Humidity: 88%
Barometer: 1011.2 hPa
Clouds: Overcast
Visibility: 10 miles , 16 km
Cloud details: Overcast 1400 ft
2019/11/21 05:09 KBVO 210509Z AUTO 17010G19KT 10SM OVC014 17/15 A2986 RMK AO2 T01670150
KBKN - Blackwell, Oklahoma, USA
Distance from station: NW 29mi, 47km
Updated: Wed, 11-20-2019 11:35pm CST

 Wind from S
Wind: S 12 mph , 19 km/h
Temperature: 63°F , 17°C
Dew Point: 63°F , 17°C
Humidity: 100%
Barometer: 1010.5 hPa
Visibility: 10 miles , 16 km
2019/11/21 05:35 KBKN 210535Z AUTO 17010KT 10SM 17/17 A2984 RMK AO2
 
KGCM - Claremore, Oklahoma, USA
Distance from station: E 86mi, 138km
Updated: Wed, 11-20-2019 11:35pm CST
Mostly cloudy
Mostly cloudy
 Wind from S
Wind: S 12 mph , 19 km/h, Gust: 17 mph , 28 km/h
Temperature: 59°F , 15°C
Dew Point: 54°F , 12°C
Humidity: 82%
Barometer: 1012.5 hPa
Clouds: Mostly cloudy
Visibility: 10 miles , 16 km
Cloud details: Partly cloudy 3400 ft
Partly cloudy 4200 ft
Mostly cloudy 5500 ft
2019/11/21 05:35 KGCM 210535Z AUTO 17010G15KT 10SM SCT034 SCT042 BKN055 15/12 A2990 RMK AO2
KCQB - Chandler, Oklahoma, USA
Distance from station: SSE 50mi, 80km
Updated: Wed, 11-20-2019 11:35pm CST
Overcast
Overcast
 Wind from S
Wind: S 14 mph , 22 km/h, Gust: 21 mph , 33 km/h
Temperature: 64°F , 18°C
Dew Point: 61°F , 16°C
Humidity: 88%
Barometer: 1011.5 hPa
Clouds: Overcast
Visibility: 10 miles , 16 km
Cloud details: Overcast 1400 ft
2019/11/21 05:35 KCQB 210535Z AUTO 17012G18KT 10SM OVC014 18/16 A2987 RMK AO2 T01770163
KCUH - Cushing, Oklahoma, USA
Distance from station: SSE 35mi, 57km
Updated: Wed, 11-20-2019 11:35pm CST
Mostly cloudy
Mostly cloudy
 Wind from S
Wind: S 14 mph , 22 km/h, Gust: 21 mph , 33 km/h
Temperature: 64°F , 18°C
Dew Point: 61°F , 16°C
Humidity: 88%
Barometer: 1010.5 hPa
Clouds: Mostly cloudy
Visibility: 10 miles , 16 km
Cloud details: Mostly cloudy 1700 ft
Mostly cloudy 11000 ft
2019/11/21 05:35 KCUH 210535Z AUTO 18012G18KT 10SM BKN017 BKN110 18/16 A2984 RMK AO2 T01750161
 
KRQO - El Reno Muni, Oklahoma, USA
Distance from station: SW 85mi, 137km
Updated: Wed, 11-20-2019 11:35pm CST
Mostly cloudy
Mostly cloudy
 Wind from S
Wind: S 14 mph , 22 km/h
Temperature: 61°F , 16°C
Dew Point: 61°F , 16°C
Humidity: 100%
Barometer: 1011.2 hPa
Clouds: Mostly cloudy
Visibility: 10 miles , 16 km
Cloud details: Mostly cloudy 4000 ft
2019/11/21 05:35 KRQO 210535Z AUTO 17012KT 10SM BKN040 16/16 A2986 RMK AO2 T01640156
KEND - Enid/Vance Afb, Oklahoma, USA
Distance from station: W 50mi, 81km
Updated: Wed, 11-20-2019 10:56pm CST
Partly cloudy
Partly cloudy
 Wind from S
Wind: S 15 mph , 24 km/h
Clouds: Partly cloudy
Visibility: 10 miles , 16 km
Cloud details: Partly cloudy 3900 ft
2019/11/21 04:56 KEND 210456Z AUTO 17013KT 10SM SCT039 M A2982 RMK AO2 SLPNO ALSTG ESTMD $
KWDG - Enid/Woodring, Oklahoma, USA
Distance from station: W 42mi, 67km
Updated: Wed, 11-20-2019 11:35pm CST
Overcast
Overcast
 Wind from S
Wind: S 9 mph , 15 km/h
Temperature: 61°F , 16°C
Dew Point: 61°F , 16°C
Humidity: 100%
Barometer: 1009.5 hPa
Clouds: Overcast
Visibility: 10 miles , 16 km
Cloud details: Overcast 4000 ft
2019/11/21 05:35 KWDG 210535Z AUTO 19008KT 10SM OVC040 16/16 A2981 RMK AO2
 
KGOK - Guthrie, Oklahoma, USA
Distance from station: SSW 44mi, 71km
Updated: Wed, 11-20-2019 10:53pm CST
Clear
Clear
 Wind from S
Wind: S 22 mph , 35 km/h, Gust: 32 mph , 52 km/h
Temperature: 66°F , 19°C
Dew Point: 61°F , 16°C
Humidity: 83%
Barometer: 1010.2 hPa
Clouds: Clear
Visibility: 10 miles , 16 km
2019/11/21 04:53 KGOK 210453Z AUTO 18019G28KT 10SM CLR 19/16 A2983 RMK AO2 PK WND 18028/0446 SLP096 T01890161
KOUN - Norman/Westheime, Oklahoma, USA
Distance from station: SSW 84mi, 136km
Updated: Wed, 11-20-2019 11:35pm CST
Mostly cloudy
Mostly cloudy
 Wind from SSE
Wind: SSE 16 mph , 26 km/h, Gust: 22 mph , 35 km/h
Temperature: 64°F , 18°C
Dew Point: 61°F , 16°C
Humidity: 88%
Barometer: 1011.2 hPa
Clouds: Mostly cloudy
Visibility: 10 miles , 16 km
Cloud details: Partly cloudy 2800 ft
Mostly cloudy 5000 ft
2019/11/21 05:35 KOUN 210535Z AUTO 16014G19KT 10SM SCT028 BKN050 18/16 A2986 RMK AO2 T01790161
KOKC - Oklahoma City, Oklahoma, USA
Distance from station: SSW 78mi, 126km
Updated: Wed, 11-20-2019 10:52pm CST
Partly cloudy
Partly cloudy
 Wind from SSE
Wind: SSE 12 mph , 19 km/h
Temperature: 63°F , 17°C
Dew Point: 61°F , 16°C
Humidity: 94%
Barometer: 1010.8 hPa
Clouds: Partly cloudy
Visibility: 10 miles , 16 km
Cloud details: Few Clouds 10000 ft
Partly cloudy 25000 ft
2019/11/21 04:52 KOKC 210452Z 16010KT 10SM FEW100 SCT250 17/16 A2985 RMK AO2 SLP101 T01720161
 
KPWA - Okla City/Wiley, Oklahoma, USA
Distance from station: SSW 70mi, 113km
Updated: Wed, 11-20-2019 10:53pm CST
Clear
Clear
 Wind from S
Wind: S 16 mph , 26 km/h, Gust: 25 mph , 41 km/h
Temperature: 64°F , 18°C
Dew Point: 61°F , 16°C
Humidity: 88%
Barometer: 1010.8 hPa
Clouds: Clear
Visibility: 10 miles , 16 km
2019/11/21 04:53 KPWA 210453Z AUTO 18014G22KT 10SM CLR 18/16 A2985 RMK AO2 SLP098 T01830161
KRCE - Okla City/Page, Oklahoma, USA
Distance from station: SW 78mi, 126km
Updated: Wed, 11-20-2019 11:35pm CST

 Wind from S
Wind: S 16 mph , 26 km/h
Temperature: 63°F , 17°C
Dew Point: 61°F , 16°C
Humidity: 94%
Barometer: 1010.5 hPa
Visibility: 10 miles , 16 km
2019/11/21 05:35 KRCE 210535Z AUTO 18014KT 10SM 17/16 A2984 RMK AO2
KOKM - Okmulgee, Oklahoma, USA
Distance from station: SE 79mi, 127km
Updated: Wed, 11-20-2019 11:35pm CST
Light rain, Overcast
Light rain, Overcast
 Wind from SSE
Wind: SSE 13 mph , 20 km/h, Gust: 23 mph , 37 km/h
Temperature: 64°F , 18°C
Dew Point: 64°F , 18°C
Humidity: 100%
Barometer: 1012.5 hPa
Summary: Light rain
Clouds: Overcast
Visibility: 7 miles , 11 km
Cloud details: Mostly cloudy 2200 ft
Overcast 3200 ft
2019/11/21 05:35 KOKM 210535Z AUTO 15011G20KT 130V190 7SM -RA BKN022 OVC032 18/18 A2990 RMK AO2 P0009 T01750175
 
KPNC - Ponca City, Oklahoma, USA
Distance from station: N 22mi, 36km
Updated: Wed, 11-20-2019 10:53pm CST
Overcast
Overcast
 Wind from S
Wind: S 17 mph , 28 km/h, Gust: 26 mph , 43 km/h
Temperature: 64°F , 18°C
Dew Point: 61°F , 16°C
Humidity: 88%
Barometer: 1009.8 hPa
Clouds: Overcast
Visibility: 10 miles , 16 km
Cloud details: Few Clouds 900 ft
Overcast 5000 ft
2019/11/21 04:53 KPNC 210453Z AUTO 17015G23KT 10SM FEW009 OVC050 18/16 A2982 RMK AO2 SLP089 T01780161
KSNL - Shawnee, Oklahoma, USA
Distance from station: S 74mi, 119km
Updated: Wed, 11-20-2019 11:35pm CST
Mostly cloudy
Mostly cloudy
 Wind from S
Wind: S 15 mph , 24 km/h, Gust: 21 mph , 33 km/h
Temperature: 63°F , 17°C
Dew Point: 61°F , 16°C
Humidity: 94%
Barometer: 1011.5 hPa
Clouds: Mostly cloudy
Visibility: 10 miles , 16 km
Cloud details: Mostly cloudy 2100 ft
Mostly cloudy 3200 ft
Mostly cloudy 4400 ft
2019/11/21 05:35 KSNL 210535Z AUTO 18013G18KT 10SM BKN021 BKN032 BKN044 17/16 A2987 RMK AO2 T01720163
KSWO - Stillwater, Oklahoma, USA
Distance from station: S 17mi, 28km
Updated: Wed, 11-20-2019 10:53pm CST
Clear
Clear
 Wind from S
Wind: S 16 mph , 26 km/h
Temperature: 64°F , 18°C
Dew Point: 61°F , 16°C
Humidity: 88%
Barometer: 1010.5 hPa
Clouds: Clear
Visibility: 10 miles , 16 km
2019/11/21 04:53 KSWO 210453Z AUTO 18014KT 10SM CLR 18/16 A2984 RMK AO2 SLP096 T01830156
 
KTIK - Tinker Afb, Oklahoma, USA
Distance from station: SSW 72mi, 115km
Updated: Wed, 11-20-2019 10:56pm CST
Few Clouds
Few Clouds
 Wind from S
Wind: S 18 mph , 30 km/h, Gust: 25 mph , 41 km/h
Temperature: 64°F , 18°C
Dew Point: 61°F , 16°C
Humidity: 88%
Barometer: 1011.2 hPa
Clouds: Few Clouds
Visibility: 10 miles , 16 km
Cloud details: Few Clouds 9500 ft
2019/11/21 04:56 KTIK 210456Z AUTO 17016G22KT 10SM FEW095 18/16 A2986 RMK AO2 SLP112 T01800161
KTUL - Tulsa, Oklahoma, USA
Distance from station: ESE 65mi, 105km
Updated: Wed, 11-20-2019 10:53pm CST
Partly cloudy
Partly cloudy
 Wind from S
Wind: S 14 mph , 22 km/h
Temperature: 63°F , 17°C
Dew Point: 57°F , 14°C
Humidity: 83%
Barometer: 1011.2 hPa
Clouds: Partly cloudy
Visibility: 10 miles , 16 km
Cloud details: Few Clouds 3800 ft
Partly cloudy 12000 ft
2019/11/21 04:53 KTUL 210453Z 17012KT 10SM FEW038 SCT120 17/14 A2986